Terminal Aerodrome Forecast
Issued by NWS Amarillo, TX

Home | Current Version | Previous Version | Text Only | Print | Product List | Glossary On
Versions: 1 2 3 4 5 6 7 8 9 10 11 12 13 14 15 16 17 18 19 20 21 22 23 24 25 26 27
000
FTUS44 KAMA 270211 AAA
TAFAMA
TAF AMD
KAMA 270211Z 2702/2724 16011KT P6SM SCT060 BKN150
     FM270300 16010KT P6SM -SHRA SCT040 OVC150
      TEMPO 2703/2705 VRB15G35KT -TSRA BKN040CB
     FM271000 20010KT P6SM OVC100
     FM271800 18015KT P6SM SCT050=

USA.gov is the U.S. government's official web portal to all federal, state and local government web resources and services.